sensor_id;sensor_type;location;lat;lon;timestamp;pressure;altitude;pressure_sealevel;temperature;humidity
62544;BME280;48597;49.030;1.822;2023-07-20T00:02:09;100928.09;;;24.48;44.21
62544;BME280;48597;49.030;1.822;2023-07-20T00:04:34;100931.78;;;24.48;44.31
62544;BME280;48597;49.030;1.822;2023-07-20T00:07:00;100932.28;;;24.47;44.32
62544;BME280;48597;49.030;1.822;2023-07-20T00:09:28;100931.47;;;24.46;44.24
62544;BME280;48597;49.030;1.822;2023-07-20T00:11:54;100933.53;;;24.46;44.37
62544;BME280;48597;49.030;1.822;2023-07-20T00:14:20;100924.91;;;24.46;44.25
62544;BME280;48597;49.030;1.822;2023-07-20T00:16:46;100933.53;;;24.46;44.34
62544;BME280;48597;49.030;1.822;2023-07-20T00:19:12;100935.63;;;24.45;44.32
62544;BME280;48597;49.030;1.822;2023-07-20T00:21:38;100929.88;;;24.45;44.26
62544;BME280;48597;49.030;1.822;2023-07-20T00:24:06;100929.88;;;24.45;44.28
62544;BME280;48597;49.030;1.822;2023-07-20T00:26:31;100929.06;;;24.45;44.21
62544;BME280;48597;49.030;1.822;2023-07-20T00:28:57;100925.38;;;24.44;44.31
62544;BME280;48597;49.030;1.822;2023-07-20T00:31:22;100928.25;;;24.44;44.40
62544;BME280;48597;49.030;1.822;2023-07-20T00:33:48;100926.66;;;24.43;44.31
62544;BME280;48597;49.030;1.822;2023-07-20T00:36:13;100928.75;;;24.43;44.26
62544;BME280;48597;49.030;1.822;2023-07-20T00:38:39;100930.81;;;24.42;44.26
62544;BME280;48597;49.030;1.822;2023-07-20T00:41:04;100925.84;;;24.43;44.19
62544;BME280;48597;49.030;1.822;2023-07-20T00:43:30;100927.94;;;24.42;44.19
62544;BME280;48597;49.030;1.822;2023-07-20T00:45:55;100925.53;;;24.41;44.42
62544;BME280;48597;49.030;1.822;2023-07-20T00:48:21;100923.97;;;24.40;44.41
62544;BME280;48597;49.030;1.822;2023-07-20T00:50:47;100920.28;;;24.39;44.21
62544;BME280;48597;49.030;1.822;2023-07-20T00:53:13;100923.97;;;24.40;44.32
62544;BME280;48597;49.030;1.822;2023-07-20T00:55:39;100920.28;;;24.39;44.38
62544;BME280;48597;49.030;1.822;2023-07-20T00:58:04;100923.16;;;24.39;44.41
62544;BME280;48597;49.030;1.822;2023-07-20T01:00:30;100924.44;;;24.38;44.39
62544;BME280;48597;49.030;1.822;2023-07-20T01:02:56;100909.25;;;24.38;44.27
62544;BME280;48597;49.030;1.822;2023-07-20T01:05:36;100915.00;;;24.38;44.34
62544;BME280;48597;49.030;1.822;2023-07-20T01:08:21;100909.25;;;24.38;44.17
62544;BME280;48597;49.030;1.822;2023-07-20T01:10:58;100905.56;;;24.37;44.26
62544;BME280;48597;49.030;1.822;2023-07-20T01:13:25;100906.03;;;24.36;44.36
62544;BME280;48597;49.030;1.822;2023-07-20T01:16:00;100906.84;;;24.36;44.24
62544;BME280;48597;49.030;1.822;2023-07-20T01:18:26;100905.22;;;24.35;44.49
62544;BME280;48597;49.030;1.822;2023-07-20T01:21:04;100911.00;;;24.35;44.21
62544;BME280;48597;49.030;1.822;2023-07-20T01:31:41;100896.25;;;24.33;44.39
62544;BME280;48597;49.030;1.822;2023-07-20T01:34:11;100891.78;;;24.32;44.53
62544;BME280;48597;49.030;1.822;2023-07-20T01:36:38;100888.09;;;24.32;44.33
62544;BME280;48597;49.030;1.822;2023-07-20T01:39:04;100888.91;;;24.32;44.45
62544;BME280;48597;49.030;1.822;2023-07-20T01:41:30;100895.94;;;24.31;44.41
62544;BME280;48597;49.030;1.822;2023-07-20T01:43:59;100887.31;;;24.31;44.07
62544;BME280;48597;49.030;1.822;2023-07-20T01:46:25;100890.19;;;24.31;44.19
62544;BME280;48597;49.030;1.822;2023-07-20T01:48:50;100886.50;;;24.31;44.21
62544;BME280;48597;49.030;1.822;2023-07-20T01:51:16;100877.06;;;24.30;44.24
62544;BME280;48597;49.030;1.822;2023-07-20T01:53:43;100879.94;;;24.30;44.38
62544;BME280;48597;49.030;1.822;2023-07-20T01:56:08;100882.03;;;24.30;44.28
62544;BME280;48597;49.030;1.822;2023-07-20T01:58:33;100882.03;;;24.30;44.39
62544;BME280;48597;49.030;1.822;2023-07-20T02:00:59;100876.72;;;24.28;44.17
62544;BME280;48597;49.030;1.822;2023-07-20T02:03:24;100881.72;;;24.28;44.20
62544;BME280;48597;49.030;1.822;2023-07-20T02:05:51;100881.72;;;24.28;44.35
62544;BME280;48597;49.030;1.822;2023-07-20T02:08:17;100880.94;;;24.27;44.25
62544;BME280;48597;49.030;1.822;2023-07-20T02:10:46;100883.81;;;24.27;44.37
62544;BME280;48597;49.030;1.822;2023-07-20T02:13:12;100891.66;;;24.27;44.30
62544;BME280;48597;49.030;1.822;2023-07-20T02:15:37;100879.31;;;24.26;44.17
62544;BME280;48597;49.030;1.822;2023-07-20T02:18:03;100880.13;;;24.27;44.41
62544;BME280;48597;49.030;1.822;2023-07-20T02:20:28;100875.63;;;24.26;44.24
62544;BME280;48597;49.030;1.822;2023-07-20T02:22:54;100883.47;;;24.25;44.19
62544;BME280;48597;49.030;1.822;2023-07-20T02:25:19;100877.72;;;24.25;44.11
62544;BME280;48597;49.030;1.822;2023-07-20T02:27:45;100877.72;;;24.25;44.14
62544;BME280;48597;49.030;1.822;2023-07-20T02:30:10;100875.31;;;24.24;44.21
62544;BME280;48597;49.030;1.822;2023-07-20T02:32:36;100875.31;;;24.24;44.37
62544;BME280;48597;49.030;1.822;2023-07-20T02:35:02;100874.50;;;24.23;44.23
62544;BME280;48597;49.030;1.822;2023-07-20T02:37:28;100875.31;;;24.24;44.22
62544;BME280;48597;49.030;1.822;2023-07-20T02:39:54;100878.66;;;24.22;43.93
62544;BME280;48597;49.030;1.822;2023-07-20T02:42:19;100875.75;;;24.22;44.31
62544;BME280;48597;49.030;1.822;2023-07-20T02:44:48;100883.59;;;24.21;44.17
62544;BME280;48597;49.030;1.822;2023-07-20T02:47:13;100877.84;;;24.21;44.25
62544;BME280;48597;49.030;1.822;2023-07-20T02:49:38;100877.03;;;24.21;44.23
62544;BME280;48597;49.030;1.822;2023-07-20T02:52:04;100876.25;;;24.20;44.29
62544;BME280;48597;49.030;1.822;2023-07-20T02:54:30;100871.75;;;24.19;44.12
62544;BME280;48597;49.030;1.822;2023-07-20T02:56:56;100883.28;;;24.19;44.28
62544;BME280;48597;49.030;1.822;2023-07-20T02:59:21;100879.59;;;24.19;44.07
62544;BME280;48597;49.030;1.822;2023-07-20T03:01:47;100876.72;;;24.19;44.26
62544;BME280;48597;49.030;1.822;2023-07-20T03:04:12;100878.00;;;24.18;44.13
62544;BME280;48597;49.030;1.822;2023-07-20T03:06:38;100871.44;;;24.17;44.11
62544;BME280;48597;49.030;1.822;2023-07-20T03:09:03;100875.13;;;24.18;44.32
62544;BME280;48597;49.030;1.822;2023-07-20T03:11:29;100877.19;;;24.17;44.26
62544;BME280;48597;49.030;1.822;2023-07-20T03:13:55;100867.75;;;24.17;44.35
62544;BME280;48597;49.030;1.822;2023-07-20T03:16:21;100878.00;;;24.18;44.18
62544;BME280;48597;49.030;1.822;2023-07-20T03:18:47;100875.13;;;24.18;44.07
62544;BME280;48597;49.030;1.822;2023-07-20T03:21:12;100871.13;;;24.15;44.08
62544;BME280;48597;49.030;1.822;2023-07-20T03:23:38;100869.03;;;24.16;44.13
62544;BME280;48597;49.030;1.822;2023-07-20T03:26:04;100869.03;;;24.16;44.19
62544;BME280;48597;49.030;1.822;2023-07-20T03:28:29;100860.09;;;24.14;44.16
62544;BME280;48597;49.030;1.822;2023-07-20T03:30:58;100867.44;;;24.15;44.17
62544;BME280;48597;49.030;1.822;2023-07-20T03:33:26;100869.53;;;24.14;44.12
62544;BME280;48597;49.030;1.822;2023-07-20T03:35:52;100867.94;;;24.13;44.03
62544;BME280;48597;49.030;1.822;2023-07-20T03:38:17;100869.22;;;24.12;44.06
62544;BME280;48597;49.030;1.822;2023-07-20T03:43:16;100877.84;;;24.12;44.11
62544;BME280;48597;49.030;1.822;2023-07-20T03:45:41;100879.94;;;24.12;44.16
62544;BME280;48597;49.030;1.822;2023-07-20T03:48:06;100881.22;;;24.11;44.18
62544;BME280;48597;49.030;1.822;2023-07-20T03:50:32;100889.84;;;24.11;44.17
62544;BME280;48597;49.030;1.822;2023-07-20T03:52:58;100885.38;;;24.10;44.17
62544;BME280;48597;49.030;1.822;2023-07-20T03:55:23;100883.28;;;24.10;44.22
62544;BME280;48597;49.030;1.822;2023-07-20T03:57:49;100882.50;;;24.10;44.02
62544;BME280;48597;49.030;1.822;2023-07-20T04:00:16;100885.38;;;24.10;44.05
62544;BME280;48597;49.030;1.822;2023-07-20T04:02:42;100883.78;;;24.09;44.06
62544;BME280;48597;49.030;1.822;2023-07-20T04:05:07;100884.56;;;24.09;44.01
62544;BME280;48597;49.030;1.822;2023-07-20T04:07:33;100887.44;;;24.09;44.06
62544;BME280;48597;49.030;1.822;2023-07-20T04:09:58;100878.50;;;24.07;44.11
62544;BME280;48597;49.030;1.822;2023-07-20T04:12:23;100884.25;;;24.07;44.15
62544;BME280;48597;49.030;1.822;2023-07-20T04:14:49;100879.78;;;24.06;44.10
62544;BME280;48597;49.030;1.822;2023-07-20T04:17:14;100889.22;;;24.07;44.10
62544;BME280;48597;49.030;1.822;2023-07-20T04:19:39;100882.66;;;24.06;44.05
62544;BME280;48597;49.030;1.822;2023-07-20T04:22:05;100882.66;;;24.06;44.23
62544;BME280;48597;49.030;1.822;2023-07-20T04:24:30;100881.03;;;24.05;44.19
62544;BME280;48597;49.030;1.822;2023-07-20T04:26:56;100877.38;;;24.05;43.94
62544;BME280;48597;49.030;1.822;2023-07-20T04:29:21;100874.47;;;24.05;44.03
62544;BME280;48597;49.030;1.822;2023-07-20T04:31:46;100877.03;;;24.03;44.07
62544;BME280;48597;49.030;1.822;2023-07-20T04:34:12;100876.56;;;24.04;43.99
62544;BME280;48597;49.030;1.822;2023-07-20T04:36:37;100880.25;;;24.05;43.97
62544;BME280;48597;49.030;1.822;2023-07-20T04:39:03;100879.91;;;24.03;43.96
62544;BME280;48597;49.030;1.822;2023-07-20T04:41:29;100879.91;;;24.03;43.95
62544;BME280;48597;49.030;1.822;2023-07-20T04:43:55;100882.81;;;24.03;44.06
62544;BME280;48597;49.030;1.822;2023-07-20T04:46:20;100874.66;;;24.01;43.99
62544;BME280;48597;49.030;1.822;2023-07-20T04:48:46;100877.03;;;24.03;44.12
62544;BME280;48597;49.030;1.822;2023-07-20T04:51:13;100881.22;;;24.02;44.01
62544;BME280;48597;49.030;1.822;2023-07-20T04:53:38;100879.63;;;24.01;44.01
62544;BME280;48597;49.030;1.822;2023-07-20T04:56:04;100885.38;;;24.01;43.99
62544;BME280;48597;49.030;1.822;2023-07-20T04:58:29;100885.38;;;24.01;43.96
62544;BME280;48597;49.030;1.822;2023-07-20T05:00:55;100885.38;;;24.01;43.87
62544;BME280;48597;49.030;1.822;2023-07-20T05:03:20;100891.16;;;24.01;44.08
62544;BME280;48597;49.030;1.822;2023-07-20T05:05:47;100892.41;;;24.00;44.01
62544;BME280;48597;49.030;1.822;2023-07-20T05:08:13;100886.66;;;24.00;43.97
62544;BME280;48597;49.030;1.822;2023-07-20T05:10:38;100886.66;;;24.00;44.00
62544;BME280;48597;49.030;1.822;2023-07-20T05:13:04;100888.75;;;23.99;44.02
62544;BME280;48597;49.030;1.822;2023-07-20T05:15:29;100895.31;;;24.00;43.88
62544;BME280;48597;49.030;1.822;2023-07-20T05:17:55;100896.56;;;23.99;44.13
62544;BME280;48597;49.030;1.822;2023-07-20T05:20:20;100902.34;;;23.99;43.97
62544;BME280;48597;49.030;1.822;2023-07-20T05:22:46;100898.66;;;23.98;43.98
62544;BME280;48597;49.030;1.822;2023-07-20T05:25:11;100903.63;;;23.98;44.09
62544;BME280;48597;49.030;1.822;2023-07-20T05:27:37;100903.63;;;23.98;43.71
62544;BME280;48597;49.030;1.822;2023-07-20T05:30:04;100899.47;;;23.99;43.79
62544;BME280;48597;49.030;1.822;2023-07-20T05:32:29;100902.34;;;23.99;43.90
62544;BME280;48597;49.030;1.822;2023-07-20T05:34:55;100906.50;;;23.98;44.00
62544;BME280;48597;49.030;1.822;2023-07-20T05:37:21;100901.22;;;23.96;43.98
62544;BME280;48597;49.030;1.822;2023-07-20T05:39:46;100902.81;;;23.97;43.84
62544;BME280;48597;49.030;1.822;2023-07-20T05:42:12;100903.28;;;23.96;43.95
62544;BME280;48597;49.030;1.822;2023-07-20T05:44:37;100906.97;;;23.96;44.04
62544;BME280;48597;49.030;1.822;2023-07-20T05:47:03;100904.88;;;23.97;44.06
62544;BME280;48597;49.030;1.822;2023-07-20T05:49:29;100898.34;;;23.96;43.74
62544;BME280;48597;49.030;1.822;2023-07-20T05:51:56;100911.94;;;23.96;43.94
62544;BME280;48597;49.030;1.822;2023-07-20T05:54:23;100906.16;;;23.96;43.95
62544;BME280;48597;49.030;1.822;2023-07-20T05:56:48;100901.69;;;23.95;43.79
62544;BME280;48597;49.030;1.822;2023-07-20T05:59:14;100898.81;;;23.95;43.97
62544;BME280;48597;49.030;1.822;2023-07-20T06:01:40;100906.63;;;23.94;43.95
62544;BME280;48597;49.030;1.822;2023-07-20T06:04:05;100900.88;;;23.94;43.98
62544;BME280;48597;49.030;1.822;2023-07-20T06:06:31;100900.09;;;23.94;43.84
62544;BME280;48597;49.030;1.822;2023-07-20T06:08:56;100897.19;;;23.94;44.13
62544;BME280;48597;49.030;1.822;2023-07-20T06:11:21;100890.66;;;23.93;43.90
62544;BME280;48597;49.030;1.822;2023-07-20T06:13:47;100897.19;;;23.94;43.71
62544;BME280;48597;49.030;1.822;2023-07-20T06:16:12;100894.31;;;23.94;44.04
62544;BME280;48597;49.030;1.822;2023-07-20T06:18:38;100890.66;;;23.93;43.86
62544;BME280;48597;49.030;1.822;2023-07-20T06:21:03;100897.19;;;23.94;43.79
62544;BME280;48597;49.030;1.822;2023-07-20T06:23:29;100888.56;;;23.94;43.98
62544;BME280;48597;49.030;1.822;2023-07-20T06:25:54;100887.75;;;23.93;43.89
62544;BME280;48597;49.030;1.822;2023-07-20T06:28:19;100899.28;;;23.93;43.88
62544;BME280;48597;49.030;1.822;2023-07-20T06:30:45;100897.19;;;23.94;43.98
62544;BME280;48597;49.030;1.822;2023-07-20T06:33:10;100902.97;;;23.94;44.02
62544;BME280;48597;49.030;1.822;2023-07-20T06:35:41;100899.28;;;23.93;43.86
62544;BME280;48597;49.030;1.822;2023-07-20T06:38:06;100896.41;;;23.93;44.05
62544;BME280;48597;49.030;1.822;2023-07-20T06:40:33;100886.97;;;23.93;43.93
62544;BME280;48597;49.030;1.822;2023-07-20T06:42:58;100887.75;;;23.93;43.80
62544;BME280;48597;49.030;1.822;2023-07-20T06:45:24;100885.38;;;23.92;43.91
62544;BME280;48597;49.030;1.822;2023-07-20T06:47:49;100883.28;;;23.92;44.07
62544;BME280;48597;49.030;1.822;2023-07-20T06:50:14;100882.00;;;23.93;43.95
62544;BME280;48597;49.030;1.822;2023-07-20T06:52:41;100883.28;;;23.92;44.06
62544;BME280;48597;49.030;1.822;2023-07-20T06:55:06;100886.97;;;23.93;43.98
62544;BME280;48597;49.030;1.822;2023-07-20T06:57:32;100880.41;;;23.92;44.06
62544;BME280;48597;49.030;1.822;2023-07-20T06:59:57;100883.28;;;23.92;44.03
62544;BME280;48597;49.030;1.822;2023-07-20T07:02:23;100891.13;;;23.92;43.97
62544;BME280;48597;49.030;1.822;2023-07-20T07:04:48;100887.44;;;23.91;43.83
62544;BME280;48597;49.030;1.822;2023-07-20T07:07:14;100886.63;;;23.91;44.12
62544;BME280;48597;49.030;1.822;2023-07-20T07:09:40;100890.31;;;23.91;44.13
62544;BME280;48597;49.030;1.822;2023-07-20T07:12:06;100901.84;;;23.91;44.04
62544;BME280;48597;49.030;1.822;2023-07-20T07:14:31;100897.69;;;23.92;43.88
62544;BME280;48597;49.030;1.822;2023-07-20T07:16:57;100896.88;;;23.92;43.89
62544;BME280;48597;49.030;1.822;2023-07-20T07:19:22;100891.13;;;23.92;44.04
62544;BME280;48597;49.030;1.822;2023-07-20T07:21:47;100891.91;;;23.92;43.93
62544;BME280;48597;49.030;1.822;2023-07-20T07:24:13;100895.59;;;23.93;43.98
62544;BME280;48597;49.030;1.822;2023-07-20T07:26:41;100887.44;;;23.91;44.12
62544;BME280;48597;49.030;1.822;2023-07-20T07:29:06;100896.88;;;23.92;43.97
62544;BME280;48597;49.030;1.822;2023-07-20T07:31:34;100889.03;;;23.92;44.14
62544;BME280;48597;49.030;1.822;2023-07-20T07:34:00;100889.03;;;23.92;43.91
62544;BME280;48597;49.030;1.822;2023-07-20T07:36:25;100888.25;;;23.92;43.97
62544;BME280;48597;49.030;1.822;2023-07-20T07:38:51;100888.25;;;23.92;44.03
62544;BME280;48597;49.030;1.822;2023-07-20T07:41:16;100884.88;;;23.93;44.10
62544;BME280;48597;49.030;1.822;2023-07-20T07:43:41;100883.28;;;23.92;43.97
62544;BME280;48597;49.030;1.822;2023-07-20T07:46:07;100886.16;;;23.92;43.98
62544;BME280;48597;49.030;1.822;2023-07-20T07:48:32;100884.09;;;23.93;44.12
62544;BME280;48597;49.030;1.822;2023-07-20T07:50:58;100888.56;;;23.94;43.97
62544;BME280;48597;49.030;1.822;2023-07-20T07:53:23;100887.75;;;23.93;44.19
62544;BME280;48597;49.030;1.822;2023-07-20T07:55:51;100889.03;;;23.92;44.12
62544;BME280;48597;49.030;1.822;2023-07-20T07:58:17;100882.00;;;23.93;43.98
62544;BME280;48597;49.030;1.822;2023-07-20T08:00:42;100884.88;;;23.93;44.30
62544;BME280;48597;49.030;1.822;2023-07-20T08:03:09;100879.94;;;23.94;44.04
62544;BME280;48597;49.030;1.822;2023-07-20T08:05:35;100877.03;;;23.94;44.27
62544;BME280;48597;49.030;1.822;2023-07-20T08:08:04;100888.09;;;23.95;44.12
62544;BME280;48597;49.030;1.822;2023-07-20T08:10:30;100873.38;;;23.93;44.42
62544;BME280;48597;49.030;1.822;2023-07-20T08:12:56;100870.00;;;23.95;44.54
62544;BME280;48597;49.030;1.822;2023-07-20T08:15:21;100870.00;;;23.95;44.51
62544;BME280;48597;49.030;1.822;2023-07-20T08:17:47;100870.00;;;23.95;44.38
62544;BME280;48597;49.030;1.822;2023-07-20T08:20:14;100867.94;;;23.95;44.36
62544;BME280;48597;49.030;1.822;2023-07-20T08:22:39;100860.09;;;23.96;44.46
62544;BME280;48597;49.030;1.822;2023-07-20T08:25:08;100862.97;;;23.96;44.44
62544;BME280;48597;49.030;1.822;2023-07-20T08:27:34;100860.91;;;23.96;44.48
62544;BME280;48597;49.030;1.822;2023-07-20T08:30:00;100863.78;;;23.96;44.57
62544;BME280;48597;49.030;1.822;2023-07-20T08:32:26;100858.03;;;23.96;44.51
62544;BME280;48597;49.030;1.822;2023-07-20T08:34:51;100861.69;;;23.97;44.41
62544;BME280;48597;49.030;1.822;2023-07-20T08:37:17;100864.09;;;23.98;44.42
62544;BME280;48597;49.030;1.822;2023-07-20T08:39:42;100855.13;;;23.96;44.63
62544;BME280;48597;49.030;1.822;2023-07-20T08:42:09;100857.53;;;23.98;44.61
62544;BME280;48597;49.030;1.822;2023-07-20T08:44:37;100852.59;;;23.98;44.58
62544;BME280;48597;49.030;1.822;2023-07-20T08:47:04;100855.47;;;23.98;44.50
62544;BME280;48597;49.030;1.822;2023-07-20T08:49:33;100841.88;;;23.99;44.54
62544;BME280;48597;49.030;1.822;2023-07-20T08:51:59;100848.91;;;23.98;44.55
62544;BME280;48597;49.030;1.822;2023-07-20T08:54:30;100848.44;;;23.99;44.61
62544;BME280;48597;49.030;1.822;2023-07-20T08:57:00;100846.81;;;23.98;44.60
62544;BME280;48597;49.030;1.822;2023-07-20T08:59:28;100849.22;;;24.00;44.54
62544;BME280;48597;49.030;1.822;2023-07-20T09:01:58;100849.22;;;24.00;44.39
62544;BME280;48597;49.030;1.822;2023-07-20T09:04:24;100849.22;;;24.00;44.70
62544;BME280;48597;49.030;1.822;2023-07-20T09:06:49;100845.06;;;24.01;44.67
62544;BME280;48597;49.030;1.822;2023-07-20T09:09:15;100837.72;;;24.00;44.60
62544;BME280;48597;49.030;1.822;2023-07-20T09:11:41;100838.50;;;24.00;44.55
62544;BME280;48597;49.030;1.822;2023-07-20T09:14:08;100834.34;;;24.01;44.68
62544;BME280;48597;49.030;1.822;2023-07-20T09:16:50;100831.47;;;24.01;44.59
62544;BME280;48597;49.030;1.822;2023-07-20T09:19:16;100840.13;;;24.01;44.70
62544;BME280;48597;49.030;1.822;2023-07-20T09:21:51;100835.94;;;24.02;44.76
62544;BME280;48597;49.030;1.822;2023-07-20T09:24:18;100831.47;;;24.01;44.78
62544;BME280;48597;49.030;1.822;2023-07-20T09:26:45;100835.94;;;24.02;44.76
62544;BME280;48597;49.030;1.822;2023-07-20T09:29:10;100827.28;;;24.02;44.90
62544;BME280;48597;49.030;1.822;2023-07-20T09:31:37;100827.28;;;24.02;44.70
62544;BME280;48597;49.030;1.822;2023-07-20T09:34:05;100833.84;;;24.03;44.73
62544;BME280;48597;49.030;1.822;2023-07-20T09:36:35;100829.69;;;24.04;44.82
62544;BME280;48597;49.030;1.822;2023-07-20T09:39:01;100823.94;;;24.04;44.75
62544;BME280;48597;49.030;1.822;2023-07-20T09:41:27;100828.88;;;24.03;44.89
62544;BME280;48597;49.030;1.822;2023-07-20T09:43:53;100824.72;;;24.04;44.92
62544;BME280;48597;49.030;1.822;2023-07-20T09:46:19;100822.66;;;24.05;44.88
62544;BME280;48597;49.030;1.822;2023-07-20T09:48:52;100829.22;;;24.05;44.87
62544;BME280;48597;49.030;1.822;2023-07-20T09:51:22;100818.50;;;24.06;44.91
62544;BME280;48597;49.030;1.822;2023-07-20T09:53:49;100819.28;;;24.06;44.97
62544;BME280;48597;49.030;1.822;2023-07-20T09:56:16;100812.75;;;24.06;44.84
62544;BME280;48597;49.030;1.822;2023-07-20T09:58:44;100820.09;;;24.07;45.02
62544;BME280;48597;49.030;1.822;2023-07-20T10:01:11;100817.22;;;24.07;44.97
62544;BME280;48597;49.030;1.822;2023-07-20T10:03:40;100813.06;;;24.08;44.75
62544;BME280;48597;49.030;1.822;2023-07-20T10:06:10;100810.19;;;24.08;44.87
62544;BME280;48597;49.030;1.822;2023-07-20T10:08:41;100811.78;;;24.09;44.89
62544;BME280;48597;49.030;1.822;2023-07-20T10:11:07;100800.25;;;24.09;44.91
62544;BME280;48597;49.030;1.822;2023-07-20T10:13:37;100801.88;;;24.10;44.92
62544;BME280;48597;49.030;1.822;2023-07-20T10:16:13;100803.16;;;24.09;44.91
62544;BME280;48597;49.030;1.822;2023-07-20T10:21:25;100803.47;;;24.11;44.98
62544;BME280;48597;49.030;1.822;2023-07-20T10:23:51;100798.50;;;24.11;44.95
62544;BME280;48597;49.030;1.822;2023-07-20T10:26:16;100793.53;;;24.12;44.88
62544;BME280;48597;49.030;1.822;2023-07-20T10:28:41;100790.66;;;24.12;44.96
62544;BME280;48597;49.030;1.822;2023-07-20T10:31:12;100783.63;;;24.13;44.92
62544;BME280;48597;49.030;1.822;2023-07-20T10:33:38;100788.59;;;24.12;44.89
62544;BME280;48597;49.030;1.822;2023-07-20T10:36:04;100786.50;;;24.13;44.91
62544;BME280;48597;49.030;1.822;2023-07-20T10:38:53;100790.97;;;24.14;44.83
62544;BME280;48597;49.030;1.822;2023-07-20T10:41:34;100786.78;;;24.15;45.08
62544;BME280;48597;49.030;1.822;2023-07-20T10:44:07;100781.03;;;24.15;45.04
62544;BME280;48597;49.030;1.822;2023-07-20T10:46:34;100778.16;;;24.15;44.99
62544;BME280;48597;49.030;1.822;2023-07-20T10:49:02;100777.69;;;24.16;44.99
62544;BME280;48597;49.030;1.822;2023-07-20T10:51:28;100779.28;;;24.17;44.99
62544;BME280;48597;49.030;1.822;2023-07-20T10:53:58;100776.41;;;24.17;44.92
62544;BME280;48597;49.030;1.822;2023-07-20T10:56:27;100777.19;;;24.18;44.92
62544;BME280;48597;49.030;1.822;2023-07-20T10:59:01;100775.13;;;24.18;44.82
62544;BME280;48597;49.030;1.822;2023-07-20T11:01:30;100770.16;;;24.19;44.82
62544;BME280;48597;49.030;1.822;2023-07-20T11:03:59;100768.88;;;24.20;44.98
62544;BME280;48597;49.030;1.822;2023-07-20T11:09:09;100764.72;;;24.21;44.92
62544;BME280;48597;49.030;1.822;2023-07-20T11:11:38;100761.84;;;24.21;45.06
62544;BME280;48597;49.030;1.822;2023-07-20T11:14:08;100760.56;;;24.22;45.05
62544;BME280;48597;49.030;1.822;2023-07-20T11:19:00;100758.50;;;24.23;44.76
62544;BME280;48597;49.030;1.822;2023-07-20T11:21:26;100770.81;;;24.23;44.99
62544;BME280;48597;49.030;1.822;2023-07-20T11:23:55;100765.88;;;24.24;44.94
62544;BME280;48597;49.030;1.822;2023-07-20T11:26:20;100767.47;;;24.25;45.00
62544;BME280;48597;49.030;1.822;2023-07-20T11:28:51;100766.19;;;24.26;44.90
62544;BME280;48597;49.030;1.822;2023-07-20T11:31:18;100763.31;;;24.26;44.95
62544;BME280;48597;49.030;1.822;2023-07-20T11:33:44;100769.06;;;24.26;44.88
62544;BME280;48597;49.030;1.822;2023-07-20T11:36:09;100759.94;;;24.27;45.00
62544;BME280;48597;49.030;1.822;2023-07-20T11:38:35;100754.19;;;24.27;44.89
62544;BME280;48597;49.030;1.822;2023-07-20T11:41:03;100761.50;;;24.28;44.98
62544;BME280;48597;49.030;1.822;2023-07-20T11:43:29;100756.56;;;24.29;44.93
62544;BME280;48597;49.030;1.822;2023-07-20T11:45:54;100745.03;;;24.29;44.92
62544;BME280;48597;49.030;1.822;2023-07-20T11:48:20;100745.03;;;24.29;44.82
62544;BME280;48597;49.030;1.822;2023-07-20T11:50:45;100751.59;;;24.29;45.00
62544;BME280;48597;49.030;1.822;2023-07-20T11:53:12;100743.75;;;24.30;44.99
62544;BME280;48597;49.030;1.822;2023-07-20T11:55:39;100738.78;;;24.30;44.74
62544;BME280;48597;49.030;1.822;2023-07-20T11:58:06;100737.50;;;24.31;44.76
62544;BME280;48597;49.030;1.822;2023-07-20T12:00:33;100735.44;;;24.32;44.87
62544;BME280;48597;49.030;1.822;2023-07-20T12:02:59;100733.34;;;24.32;45.03
62544;BME280;48597;49.030;1.822;2023-07-20T12:05:25;100732.53;;;24.32;44.88
62544;BME280;48597;49.030;1.822;2023-07-20T12:07:52;100734.94;;;24.33;45.01
62544;BME280;48597;49.030;1.822;2023-07-20T12:10:26;100721.34;;;24.34;45.04
62544;BME280;48597;49.030;1.822;2023-07-20T12:12:53;100718.47;;;24.34;44.89
62544;BME280;48597;49.030;1.822;2023-07-20T12:15:25;100719.25;;;24.34;44.92
62544;BME280;48597;49.030;1.822;2023-07-20T12:17:57;100713.50;;;24.34;44.72
62544;BME280;48597;49.030;1.822;2023-07-20T12:20:30;100718.78;;;24.36;44.76
62544;BME280;48597;49.030;1.822;2023-07-20T12:23:00;100703.56;;;24.35;44.87
62544;BME280;48597;49.030;1.822;2023-07-20T12:25:36;100705.16;;;24.36;44.86
62544;BME280;48597;49.030;1.822;2023-07-20T12:28:11;100708.84;;;24.37;44.86
62544;BME280;48597;49.030;1.822;2023-07-20T12:30:38;100700.22;;;24.37;44.81
62544;BME280;48597;49.030;1.822;2023-07-20T12:33:04;100706.78;;;24.37;44.87
62544;BME280;48597;49.030;1.822;2023-07-20T12:35:30;100709.97;;;24.39;44.90
62544;BME280;48597;49.030;1.822;2023-07-20T12:37:56;100698.44;;;24.39;44.72
62544;BME280;48597;49.030;1.822;2023-07-20T12:40:21;100696.34;;;24.40;44.88
62544;BME280;48597;49.030;1.822;2023-07-20T12:42:46;100690.59;;;24.40;44.89
62544;BME280;48597;49.030;1.822;2023-07-20T12:45:13;100685.13;;;24.42;44.79
62544;BME280;48597;49.030;1.822;2023-07-20T12:47:39;100687.19;;;24.41;44.75
62544;BME280;48597;49.030;1.822;2023-07-20T12:50:05;100679.34;;;24.42;44.86
62544;BME280;48597;49.030;1.822;2023-07-20T12:52:31;100686.72;;;24.43;44.80
62544;BME280;48597;49.030;1.822;2023-07-20T12:54:57;100673.09;;;24.43;44.79
62544;BME280;48597;49.030;1.822;2023-07-20T12:57:25;100671.03;;;24.44;44.86
62544;BME280;48597;49.030;1.822;2023-07-20T12:59:54;100677.59;;;24.44;44.82
62544;BME280;48597;49.030;1.822;2023-07-20T13:02:19;100671.81;;;24.44;44.90
62544;BME280;48597;49.030;1.822;2023-07-20T13:04:45;100669.75;;;24.45;44.65
62544;BME280;48597;49.030;1.822;2023-07-20T13:07:10;100661.91;;;24.45;44.89